createdAt,value
2018-05-12T04:10:15.304Z,35
2018-05-12T04:10:40.741Z,35
2018-05-12T04:11:06.809Z,35
2018-05-12T04:11:32.149Z,40
2018-05-12T04:11:57.714Z,40
2018-05-12T04:12:23.092Z,40
2018-05-12T04:12:48.597Z,40
2018-05-12T04:13:14.146Z,40
2018-05-12T04:13:39.587Z,40
2018-05-12T04:14:05.125Z,40
2018-05-12T04:14:30.608Z,45
2018-05-12T04:14:56.154Z,45
2018-05-12T04:15:21.697Z,45
2018-05-12T04:15:47.291Z,45
2018-05-12T04:16:12.828Z,45
2018-05-12T04:16:38.221Z,45
2018-05-12T04:17:03.823Z,45
2018-05-12T04:17:29.244Z,45
2018-05-12T04:17:54.772Z,50
2018-05-12T04:18:20.451Z,50
2018-05-12T04:18:45.958Z,50
2018-05-12T04:19:11.521Z,50
2018-05-12T04:19:36.987Z,50
2018-05-12T04:20:02.599Z,50
2018-05-12T04:20:28.334Z,50
2018-05-12T04:20:53.766Z,55
2018-05-12T04:21:19.258Z,55
2018-05-12T04:21:44.729Z,55
2018-05-12T04:22:10.182Z,55
2018-05-12T04:22:35.700Z,55
2018-05-12T04:23:01.172Z,55
2018-05-12T04:23:26.739Z,55
2018-05-12T04:23:52.381Z,60
2018-05-12T04:24:17.802Z,60
2018-05-12T04:24:43.368Z,60
2018-05-12T04:25:09.072Z,60
2018-05-12T04:25:34.665Z,60
2018-05-12T04:26:00.126Z,60
2018-05-12T04:26:25.653Z,65
2018-05-12T04:26:51.131Z,65
2018-05-12T04:27:16.722Z,65
2018-05-12T04:27:45.784Z,65
2018-05-12T04:28:20.822Z,65
2018-05-12T04:28:55.352Z,70
2018-05-12T04:29:22.479Z,70
2018-05-12T04:39:42.107Z,95
2018-05-12T04:40:08.747Z,100
2018-05-12T04:40:33.896Z,100
2018-05-12T04:40:59.576Z,100
2018-05-12T04:41:25.258Z,100
2018-05-12T04:41:50.763Z,100
2018-05-12T04:42:16.219Z,105
2018-05-12T04:42:41.760Z,105
2018-05-12T04:43:07.346Z,105
2018-05-12T04:43:32.893Z,105
2018-05-12T04:43:58.400Z,105
2018-05-12T04:44:24.118Z,110
2018-05-12T04:51:15.068Z,120
2018-05-12T04:51:40.738Z,125
2018-05-12T04:52:06.956Z,125
2018-05-12T04:52:33.042Z,125
2018-05-12T05:04:14.445Z,160
2018-05-12T05:04:42.217Z,160
2018-05-12T05:06:17.319Z,165
2018-05-12T05:06:43.959Z,165
2018-05-12T05:07:12.290Z,165
2018-05-12T05:07:50.328Z,170
2018-05-12T05:09:05.369Z,175
2018-05-12T05:09:38.834Z,175
2018-05-12T05:10:05.293Z,175
2018-05-12T05:10:31.581Z,175
2018-05-12T05:10:57.886Z,180
2018-05-12T05:11:23.799Z,180
2018-05-12T05:11:49.886Z,180
2018-05-12T05:12:15.607Z,180
2018-05-12T05:12:41.591Z,185
2018-05-12T05:13:07.006Z,185
2018-05-12T05:13:33.911Z,185
2018-05-12T05:13:59.343Z,190
2018-05-12T05:14:25.739Z,190
2018-05-12T05:14:51.699Z,190
2018-05-12T05:15:17.540Z,195
2018-05-12T05:15:43.422Z,190
2018-05-12T05:16:09.409Z,195
2018-05-12T05:16:35.027Z,195
2018-05-12T05:17:00.509Z,195
2018-05-12T05:17:26.369Z,195
2018-05-12T05:17:52.472Z,195
2018-05-12T05:18:18.075Z,195
2018-05-12T05:18:43.798Z,195
2018-05-12T05:19:09.858Z,200
2018-05-12T05:19:36.644Z,200
2018-05-12T05:20:02.905Z,200
2018-05-12T05:20:38.059Z,200
2018-05-12T05:21:04.268Z,200
2018-05-12T05:21:30.301Z,200
2018-05-12T05:21:58.214Z,205
2018-05-12T05:22:27.384Z,205
2018-05-12T05:26:59.554Z,215
2018-05-12T05:27:24.980Z,215
2018-05-12T05:33:52.663Z,225
2018-05-12T05:36:52.631Z,230
2018-05-12T05:37:19.477Z,230
2018-05-12T05:37:47.780Z,230
2018-05-12T05:42:46.516Z,250
2018-05-12T05:48:57.816Z,305
2018-05-12T05:49:23.868Z,310
2018-05-12T05:49:52.512Z,315
2018-05-12T05:50:19.976Z,310
2018-05-12T05:50:46.226Z,315
2018-05-12T05:51:12.331Z,320
2018-05-12T05:53:36.413Z,335
2018-05-12T05:54:02.207Z,330
2018-05-12T05:54:28.502Z,325
2018-05-12T05:54:59.219Z,320
2018-05-12T05:55:26.803Z,320
2018-05-12T05:58:31.304Z,335
2018-05-12T05:59:00.058Z,350
2018-05-12T06:02:16.315Z,685
2018-05-12T06:03:01.265Z,705
2018-05-12T06:05:14.184Z,620
2018-05-12T06:05:39.701Z,600
2018-05-12T06:06:18.980Z,595
2018-05-12T06:07:02.015Z,620
2018-05-12T06:07:28.059Z,625
2018-05-12T06:07:53.957Z,620
2018-05-12T06:08:19.753Z,575
2018-05-12T06:08:47.283Z,550
2018-05-12T06:09:12.282Z,555
2018-05-12T06:09:37.947Z,550
2018-05-12T06:10:04.177Z,540
2018-05-12T06:12:34.106Z,505
2018-05-12T06:12:59.654Z,540
2018-05-12T06:13:25.220Z,585
2018-05-12T06:13:50.731Z,625
2018-05-12T06:14:18.164Z,660
2018-05-12T06:14:43.708Z,680
2018-05-12T06:15:09.198Z,675
2018-05-12T06:15:34.637Z,670
2018-05-12T06:16:00.198Z,660
2018-05-12T06:16:25.733Z,665
2018-05-12T06:16:51.119Z,650
2018-05-12T06:17:16.684Z,640
2018-05-12T06:17:42.144Z,625
2018-05-12T06:18:07.606Z,565
2018-05-12T06:18:33.075Z,545
2018-05-12T06:18:58.573Z,580
2018-05-12T06:19:24.023Z,620
2018-05-12T06:19:49.473Z,640
2018-05-12T06:20:14.976Z,670
2018-05-12T06:20:40.427Z,695
2018-05-12T06:21:05.893Z,700
2018-05-12T06:21:31.360Z,670
2018-05-12T06:21:56.813Z,620
2018-05-12T06:22:22.327Z,570
2018-05-12T06:22:47.913Z,510
2018-05-12T06:23:13.433Z,455
2018-05-12T06:23:39.151Z,405
2018-05-12T06:24:04.623Z,365
2018-05-12T06:24:30.108Z,355
2018-05-12T06:24:55.605Z,345
2018-05-12T06:25:21.028Z,340
2018-05-12T06:25:46.541Z,350
2018-05-12T06:26:12.014Z,360
2018-05-12T06:26:37.547Z,410
2018-05-12T06:27:03.005Z,460
2018-05-12T06:27:28.440Z,535
2018-05-12T06:27:54.026Z,610
2018-05-12T06:28:19.401Z,735
2018-05-12T06:28:44.922Z,825
2018-05-12T06:29:10.406Z,840
2018-05-12T06:29:35.979Z,815
2018-05-12T06:30:01.443Z,790
2018-05-12T06:30:26.933Z,780
2018-05-12T06:30:52.413Z,780
2018-05-12T06:31:17.895Z,820
2018-05-12T06:31:43.361Z,840
2018-05-12T06:32:09.130Z,805
2018-05-12T06:32:34.618Z,725
2018-05-12T06:33:00.144Z,610
2018-05-12T06:33:25.658Z,470
2018-05-12T06:33:51.072Z,380
2018-05-12T06:34:16.570Z,345
2018-05-12T06:34:42.053Z,330
2018-05-12T06:35:07.738Z,320
2018-05-12T06:35:33.029Z,310
2018-05-12T06:35:58.703Z,295
2018-05-12T06:36:24.161Z,285
2018-05-12T06:36:49.597Z,285
2018-05-12T06:37:15.075Z,285
2018-05-12T06:37:40.516Z,285
2018-05-12T06:38:06.023Z,290
2018-05-12T06:38:31.492Z,295
2018-05-12T06:38:57.084Z,300
2018-05-12T06:39:23.095Z,300
2018-05-12T06:39:48.616Z,300
2018-05-12T06:40:14.719Z,305
2018-05-12T06:40:40.302Z,305
2018-05-12T06:41:05.817Z,310
2018-05-12T06:41:31.340Z,310
2018-05-12T06:41:56.859Z,310
2018-05-12T06:42:22.404Z,315
2018-05-12T06:42:47.834Z,320
2018-05-12T06:43:14.003Z,320
2018-05-12T06:43:39.687Z,320
2018-05-12T06:44:05.193Z,320
2018-05-12T06:44:30.910Z,320
2018-05-12T06:44:56.431Z,320
2018-05-12T06:45:21.912Z,320
2018-05-12T06:45:47.403Z,325
2018-05-12T06:46:12.893Z,335
2018-05-12T06:46:38.327Z,330
2018-05-12T06:47:03.833Z,330
2018-05-12T06:47:29.280Z,330
2018-05-12T06:47:54.767Z,330
2018-05-12T06:48:20.220Z,325
2018-05-12T06:48:45.788Z,325
2018-05-12T06:49:11.201Z,320
2018-05-12T06:49:36.677Z,320
2018-05-12T06:50:02.156Z,320
2018-05-12T06:50:27.609Z,310
2018-05-12T06:50:53.119Z,310
2018-05-12T06:51:18.593Z,320
2018-05-12T06:51:44.025Z,325
2018-05-12T06:52:09.513Z,320
2018-05-12T06:52:34.938Z,325
2018-05-12T06:53:00.384Z,320
2018-05-12T06:53:25.866Z,320
2018-05-12T06:53:51.347Z,320
2018-05-12T06:54:16.808Z,335
2018-05-12T06:54:42.328Z,335
2018-05-12T06:55:07.789Z,340
2018-05-12T06:55:33.291Z,325
2018-05-12T06:55:58.762Z,320
2018-05-12T06:56:24.241Z,325
2018-05-12T06:56:49.718Z,320
2018-05-12T06:57:15.209Z,320
2018-05-12T06:57:40.712Z,330
2018-05-12T06:58:06.184Z,330
2018-05-12T06:58:31.608Z,325
2018-05-12T06:58:57.226Z,340
2018-05-12T06:59:22.693Z,350
2018-05-12T06:59:48.218Z,360
2018-05-12T07:00:13.698Z,375
2018-05-12T07:00:39.143Z,375
2018-05-12T07:01:04.622Z,385
2018-05-12T07:01:30.125Z,380
2018-05-12T07:01:55.520Z,375
2018-05-12T07:02:21.022Z,380
2018-05-12T07:02:46.472Z,380
2018-05-12T07:03:11.956Z,395
2018-05-12T07:03:37.428Z,390
2018-05-12T07:04:02.956Z,400
2018-05-12T07:04:28.370Z,410
2018-05-12T07:04:53.870Z,455
2018-05-12T07:05:19.350Z,510
2018-05-12T07:05:44.865Z,600
2018-05-12T07:06:10.331Z,680
2018-05-12T07:06:35.814Z,800
2018-05-12T07:07:01.340Z,885
2018-05-12T07:07:26.766Z,935
2018-05-12T07:07:52.235Z,985
2018-05-12T07:08:17.728Z,935
2018-05-12T07:08:43.194Z,680
2018-05-12T07:09:08.652Z,835
2018-05-12T07:09:34.080Z,890
2018-05-12T07:09:59.572Z,945
2018-05-12T07:10:25.044Z,995
2018-05-12T07:10:50.514Z,1020
2018-05-12T07:11:15.982Z,990
2018-05-12T07:11:41.466Z,1005
2018-05-12T07:12:06.980Z,1030
2018-05-12T07:12:32.471Z,1015
2018-05-12T07:12:57.951Z,1025
2018-05-12T07:13:23.550Z,1050
2018-05-12T07:13:49.028Z,1060
2018-05-12T07:14:14.506Z,1040
2018-05-12T07:14:39.913Z,1015
2018-05-12T07:15:05.388Z,1000
2018-05-12T07:15:30.919Z,1035
2018-05-12T07:15:56.324Z,1085
2018-05-12T07:16:21.819Z,1125
2018-05-12T07:16:47.296Z,1135
2018-05-12T07:17:12.740Z,1130
2018-05-12T07:17:38.251Z,1120
2018-05-12T07:18:03.743Z,1115
2018-05-12T07:18:29.232Z,1080
2018-05-12T07:18:54.699Z,1015
2018-05-12T07:19:20.126Z,975
2018-05-12T07:19:45.603Z,980
2018-05-12T07:20:11.165Z,940
2018-05-12T07:20:36.707Z,950
2018-05-12T07:21:02.132Z,940
2018-05-12T07:21:27.574Z,925
2018-05-12T07:21:53.098Z,890
2018-05-12T07:22:18.598Z,870
2018-05-12T07:22:44.170Z,860
2018-05-12T07:23:09.652Z,840
2018-05-12T07:23:35.179Z,840
2018-05-12T07:24:00.598Z,840
2018-05-12T07:24:26.062Z,845
2018-05-12T07:24:51.563Z,880
2018-05-12T07:25:17.067Z,910
2018-05-12T07:25:42.481Z,935
2018-05-12T07:26:07.981Z,910
2018-05-12T07:26:33.442Z,935
2018-05-12T07:26:58.896Z,940
2018-05-12T07:27:24.389Z,910
2018-05-12T07:27:49.845Z,895
2018-05-12T07:28:15.354Z,905
2018-05-12T07:28:40.801Z,925
2018-05-12T07:29:06.251Z,990
2018-05-12T07:29:31.779Z,1020
2018-05-12T07:29:57.278Z,1040
2018-05-12T07:30:22.807Z,1010
2018-05-12T07:30:48.232Z,1015
2018-05-12T07:31:13.740Z,1035
2018-05-12T07:31:39.198Z,1045
2018-05-12T07:32:04.659Z,1020
2018-05-12T07:32:30.071Z,980
2018-05-12T07:32:55.618Z,975
2018-05-12T07:33:21.012Z,950
2018-05-12T07:33:46.486Z,945
2018-05-12T07:34:12.009Z,935
2018-05-12T07:34:37.482Z,965
2018-05-12T07:35:02.976Z,965
2018-05-12T07:35:28.431Z,950
2018-05-12T07:35:54.035Z,970
2018-05-12T07:36:19.472Z,945
2018-05-12T07:36:44.989Z,955
2018-05-12T07:37:10.403Z,920
2018-05-12T07:37:35.933Z,920
2018-05-12T07:38:01.434Z,910
2018-05-12T07:38:26.976Z,955
2018-05-12T07:38:52.412Z,925
2018-05-12T07:39:17.848Z,910
2018-05-12T07:39:43.297Z,935
2018-05-12T07:40:08.782Z,955
2018-05-12T07:40:34.297Z,915
2018-05-12T07:40:59.772Z,840
2018-05-12T07:41:25.230Z,765
2018-05-12T07:41:50.703Z,680
2018-05-12T07:42:16.217Z,600
2018-05-12T07:42:41.743Z,535
2018-05-12T07:43:07.155Z,495
2018-05-12T07:43:32.688Z,445
2018-05-12T07:43:58.125Z,405
2018-05-12T07:44:23.624Z,390
2018-05-12T07:44:49.108Z,375
2018-05-12T07:45:14.587Z,365
2018-05-12T07:45:40.088Z,360
2018-05-12T07:46:05.479Z,355
2018-05-12T07:46:31.016Z,350
2018-05-12T07:46:56.437Z,350
2018-05-12T07:47:21.895Z,345
2018-05-12T07:47:47.404Z,340
2018-05-12T07:48:12.856Z,335
2018-05-12T07:48:38.353Z,335
2018-05-12T07:49:03.750Z,340
2018-05-12T07:49:29.220Z,340
2018-05-12T07:49:54.723Z,340
2018-05-12T07:50:20.143Z,340
2018-05-12T07:50:45.618Z,340
2018-05-12T07:51:11.064Z,345
2018-05-12T07:51:36.573Z,345
2018-05-12T07:52:02.007Z,340
2018-05-12T07:52:27.490Z,345
2018-05-12T07:52:52.952Z,350
2018-05-12T07:53:18.462Z,345
2018-05-12T07:53:43.941Z,345
2018-05-12T07:54:09.423Z,345
2018-05-12T07:54:34.901Z,345
2018-05-12T07:55:00.379Z,340
2018-05-12T07:55:25.821Z,340
2018-05-12T07:55:51.397Z,340
2018-05-12T07:56:16.799Z,340
2018-05-12T07:56:42.312Z,340
2018-05-12T07:57:07.701Z,340
2018-05-12T07:57:33.283Z,335
2018-05-12T07:57:58.844Z,335
2018-05-12T07:58:24.283Z,335
2018-05-12T07:58:49.758Z,335
2018-05-12T07:59:15.236Z,325
2018-05-12T07:59:40.691Z,325
2018-05-12T08:00:06.185Z,325
2018-05-12T08:00:31.629Z,325
2018-05-12T08:00:57.177Z,325
2018-05-12T08:01:22.639Z,320
2018-05-12T08:01:48.170Z,315
2018-05-12T08:02:13.621Z,310
2018-05-12T08:02:39.053Z,310
2018-05-12T08:03:04.581Z,310
2018-05-12T08:03:30.057Z,305
2018-05-12T08:03:55.475Z,305
2018-05-12T08:04:21.041Z,305
2018-05-12T08:04:46.445Z,305
2018-05-12T08:05:11.944Z,300
2018-05-12T08:05:37.469Z,300
2018-05-12T08:06:02.899Z,300
2018-05-12T08:06:28.395Z,300
2018-05-12T08:06:53.860Z,300
2018-05-12T08:07:19.308Z,300
2018-05-12T08:07:44.751Z,300
2018-05-12T08:08:10.265Z,300
2018-05-12T08:08:35.765Z,300
2018-05-12T08:09:01.308Z,295
2018-05-12T08:09:26.729Z,295
2018-05-12T08:09:52.239Z,295
2018-05-12T08:10:17.744Z,290
2018-05-12T08:10:43.226Z,290
2018-05-12T08:11:08.802Z,290
2018-05-12T08:11:34.323Z,290
2018-05-12T08:11:59.949Z,290
2018-05-12T08:12:25.407Z,280
2018-05-12T08:12:50.964Z,280
2018-05-12T08:13:16.516Z,285
2018-05-12T08:13:41.976Z,280
2018-05-12T08:14:07.416Z,280
2018-05-12T08:14:32.938Z,280
2018-05-12T08:14:58.429Z,280
2018-05-12T08:15:23.947Z,280
2018-05-12T08:15:49.552Z,280
2018-05-12T08:16:14.986Z,275
2018-05-12T08:16:40.620Z,275
2018-05-12T08:17:06.029Z,275
2018-05-12T08:17:31.594Z,275
2018-05-12T08:17:57.107Z,275
2018-05-12T08:18:22.706Z,275
2018-05-12T08:18:48.202Z,270
2018-05-12T08:19:13.757Z,270
2018-05-12T08:19:39.193Z,270
2018-05-12T08:20:04.727Z,270
2018-05-12T08:20:30.228Z,270
2018-05-12T08:20:55.776Z,270
2018-05-12T08:21:21.379Z,265
2018-05-12T08:21:46.865Z,265
2018-05-12T08:22:12.322Z,265
2018-05-12T08:22:37.822Z,265
2018-05-12T08:23:03.394Z,265
2018-05-12T08:23:28.732Z,265
2018-05-12T08:23:54.235Z,265
2018-05-12T08:24:19.684Z,265
2018-05-12T08:24:45.142Z,260
2018-05-12T08:25:10.638Z,260
2018-05-12T08:25:36.116Z,260
2018-05-12T08:26:01.676Z,260
2018-05-12T08:26:27.088Z,265
2018-05-12T08:26:52.531Z,260
2018-05-12T08:27:17.987Z,260
2018-05-12T08:27:43.473Z,260
2018-05-12T08:28:09.005Z,260
2018-05-12T08:28:34.439Z,260
2018-05-12T08:28:59.982Z,260
2018-05-12T08:29:25.553Z,260
2018-05-12T08:29:50.990Z,260
2018-05-12T08:30:16.474Z,260
2018-05-12T08:30:41.958Z,260
2018-05-12T08:31:07.425Z,260
2018-05-12T08:31:33.097Z,260
2018-05-12T08:31:58.470Z,260
2018-05-12T08:32:23.969Z,255
2018-05-12T08:32:49.457Z,255
2018-05-12T08:33:14.957Z,255
2018-05-12T08:33:40.431Z,255
2018-05-12T08:34:05.905Z,255
2018-05-12T08:34:31.373Z,260
2018-05-12T08:34:56.855Z,255
2018-05-12T08:35:22.324Z,250
2018-05-12T08:35:47.796Z,250
2018-05-12T08:36:13.232Z,250
2018-05-12T08:36:38.725Z,250
2018-05-12T08:37:04.179Z,250
2018-05-12T08:37:29.620Z,250
2018-05-12T08:37:55.082Z,250
2018-05-12T08:38:20.574Z,250
2018-05-12T08:38:46.045Z,250
2018-05-12T08:39:11.498Z,250
2018-05-12T08:39:36.984Z,250
2018-05-12T08:40:02.465Z,250
2018-05-12T08:40:27.916Z,250
2018-05-12T08:40:53.412Z,250
2018-05-12T08:41:18.874Z,250
2018-05-12T08:41:44.326Z,250
2018-05-12T08:42:09.800Z,250
2018-05-12T08:42:35.249Z,250
2018-05-12T08:43:00.718Z,250
2018-05-12T08:43:27.188Z,245
2018-05-12T08:43:52.875Z,245
2018-05-12T08:44:18.431Z,250
2018-05-12T08:44:44.143Z,250
2018-05-12T08:45:09.758Z,250
2018-05-12T08:45:35.153Z,250
2018-05-12T08:46:00.730Z,250
2018-05-12T08:46:26.583Z,250
2018-05-12T08:46:51.822Z,250
2018-05-12T08:47:17.313Z,250
2018-05-12T08:47:42.836Z,250
2018-05-12T08:48:08.502Z,250
2018-05-12T08:48:34.294Z,250
2018-05-12T08:49:07.363Z,250
2018-05-12T08:49:33.084Z,250
2018-05-12T08:49:58.616Z,250
2018-05-12T08:50:24.234Z,250
2018-05-12T08:50:49.683Z,250
2018-05-12T08:51:15.459Z,245
2018-05-12T08:51:40.799Z,245
2018-05-12T08:52:06.690Z,245
2018-05-12T08:52:32.254Z,245
2018-05-12T08:52:57.837Z,245
2018-05-12T08:53:23.927Z,245
2018-05-12T08:53:50.272Z,245
2018-05-12T08:54:17.403Z,245
2018-05-12T08:54:43.347Z,250
2018-05-12T08:55:09.503Z,250
2018-05-12T08:55:37.694Z,250
2018-05-12T08:56:03.602Z,250
2018-05-12T08:56:29.285Z,245
2018-05-12T08:56:54.695Z,245
2018-05-12T08:57:20.226Z,250
2018-05-12T08:57:45.958Z,245
2018-05-12T08:58:11.652Z,240
2018-05-12T08:58:37.111Z,240
2018-05-12T08:59:02.790Z,240
2018-05-12T08:59:28.247Z,240
2018-05-12T08:59:53.660Z,235
2018-05-12T09:00:19.261Z,235
2018-05-12T09:00:44.710Z,235
2018-05-12T09:01:10.174Z,240
2018-05-12T09:01:35.622Z,240
2018-05-12T09:02:01.849Z,240
2018-05-12T09:02:27.315Z,240
2018-05-12T09:02:52.817Z,240
2018-05-12T09:03:18.275Z,245
2018-05-12T09:03:43.751Z,245
2018-05-12T09:04:09.232Z,250
2018-05-12T09:04:34.808Z,255
2018-05-12T09:05:00.242Z,250
2018-05-12T09:05:25.736Z,250
2018-05-12T09:05:51.208Z,255
2018-05-12T09:06:16.667Z,250
2018-05-12T09:06:42.132Z,255
2018-05-12T09:07:07.617Z,255
2018-05-12T09:07:33.058Z,255
2018-05-12T09:07:58.565Z,255
2018-05-12T09:08:24.056Z,260
2018-05-12T09:08:49.526Z,250
2018-05-12T09:09:14.959Z,250
2018-05-12T09:09:40.475Z,255
2018-05-12T09:10:05.974Z,250
2018-05-12T09:10:31.440Z,250
2018-05-12T09:10:56.907Z,255
2018-05-12T09:11:22.424Z,250
2018-05-12T09:11:47.865Z,250
2018-05-12T09:12:13.362Z,250
2018-05-12T09:12:38.861Z,245
2018-05-12T09:13:04.332Z,245
2018-05-12T09:13:29.782Z,245
2018-05-12T09:13:55.292Z,245
2018-05-12T09:14:20.756Z,245
2018-05-12T09:14:46.213Z,245
2018-05-12T09:15:11.675Z,245
2018-05-12T09:15:37.132Z,240
2018-05-12T09:16:02.634Z,240
2018-05-12T09:16:28.117Z,240
2018-05-12T09:16:53.600Z,240
2018-05-12T09:17:19.081Z,240
2018-05-12T09:17:44.563Z,240
2018-05-12T09:18:10.063Z,240
2018-05-12T09:18:35.490Z,240
2018-05-12T09:19:01.008Z,240
2018-05-12T09:19:26.492Z,240
2018-05-12T09:19:51.944Z,240
2018-05-12T09:20:17.427Z,240
2018-05-12T09:20:42.884Z,240
2018-05-12T09:21:08.372Z,240
2018-05-12T09:21:34.003Z,230
2018-05-12T09:21:59.533Z,225
2018-05-12T09:22:25.043Z,230
2018-05-12T09:22:50.441Z,230
2018-05-12T09:23:15.892Z,225
2018-05-12T09:23:41.373Z,220
2018-05-12T09:24:06.854Z,225
2018-05-12T09:24:32.318Z,225
2018-05-12T09:24:57.794Z,235
2018-05-12T09:25:23.245Z,230
2018-05-12T09:25:48.720Z,235
2018-05-12T09:26:14.186Z,240
2018-05-12T09:26:39.648Z,240
2018-05-12T09:27:05.166Z,245
2018-05-12T09:27:30.649Z,245
2018-05-12T09:27:56.125Z,245
2018-05-12T09:28:21.618Z,250
2018-05-12T09:28:47.141Z,250
2018-05-12T09:29:12.615Z,255
2018-05-12T09:29:38.111Z,255
2018-05-12T09:30:03.596Z,260
2018-05-12T09:30:29.136Z,260
2018-05-12T09:30:54.674Z,260
2018-05-12T09:31:20.087Z,260
2018-05-12T09:31:45.606Z,260
2018-05-12T09:32:11.100Z,260
2018-05-12T09:32:36.615Z,265
2018-05-12T09:33:02.142Z,260
2018-05-12T09:33:27.570Z,260
2018-05-12T09:33:53.119Z,260
2018-05-12T09:34:18.577Z,255
2018-05-12T09:34:44.066Z,260
2018-05-12T09:35:09.585Z,255
2018-05-12T09:35:35.023Z,255
2018-05-12T09:36:00.514Z,255
2018-05-12T09:36:26.038Z,255
2018-05-12T09:36:51.480Z,255
2018-05-12T09:37:17.013Z,255
2018-05-12T09:37:42.407Z,255
2018-05-12T09:38:07.957Z,255
2018-05-12T09:38:33.423Z,255
2018-05-12T09:38:58.886Z,255
2018-05-12T09:39:24.386Z,250
2018-05-12T09:39:49.797Z,255
2018-05-12T09:40:15.288Z,255
2018-05-12T09:40:40.899Z,255
2018-05-12T09:41:06.346Z,255
2018-05-12T09:41:31.751Z,255
2018-05-12T09:41:57.222Z,255
2018-05-12T09:42:22.769Z,255
2018-05-12T09:42:48.200Z,250
2018-05-12T09:43:13.713Z,240
2018-05-12T09:43:39.213Z,240
2018-05-12T09:44:04.704Z,240
2018-05-12T09:44:30.173Z,240
2018-05-12T09:44:55.693Z,245
2018-05-12T09:45:21.117Z,240
2018-05-12T09:45:46.582Z,235
2018-05-12T09:46:12.074Z,230
2018-05-12T09:46:37.532Z,230
2018-05-12T09:47:03.006Z,240
2018-05-12T09:47:28.490Z,245
2018-05-12T09:47:53.986Z,255
2018-05-12T09:48:19.406Z,260
2018-05-12T09:48:44.891Z,265
2018-05-12T09:49:10.380Z,265
2018-05-12T09:49:35.873Z,265
2018-05-12T09:50:01.294Z,265
2018-05-12T09:50:26.812Z,265
2018-05-12T09:50:52.336Z,260
2018-05-12T09:51:17.780Z,260
2018-05-12T09:51:43.281Z,255
2018-05-12T09:52:08.748Z,255
2018-05-12T09:52:34.188Z,255
2018-05-12T09:52:59.660Z,255
2018-05-12T09:53:25.157Z,250
2018-05-12T09:53:50.612Z,250
2018-05-12T09:54:16.089Z,250
2018-05-12T09:54:41.592Z,250
2018-05-12T09:55:07.081Z,250
2018-05-12T09:55:32.545Z,245
2018-05-12T09:55:58.015Z,250
2018-05-12T09:56:23.464Z,250
2018-05-12T09:56:48.951Z,250
2018-05-12T09:57:14.427Z,245
2018-05-12T09:57:39.879Z,245
2018-05-12T09:58:48.575Z,245
2018-05-12T09:59:14.072Z,240
2018-05-12T09:59:39.558Z,240
2018-05-12T10:00:05.026Z,235
2018-05-12T10:00:30.485Z,230
2018-05-12T10:00:56.003Z,225
2018-05-12T10:01:21.526Z,225
2018-05-12T10:01:46.967Z,220
2018-05-12T10:02:12.449Z,220
2018-05-12T10:02:37.853Z,215
2018-05-12T10:03:03.340Z,215
2018-05-12T10:03:28.946Z,215
2018-05-12T10:03:54.478Z,210
2018-05-12T10:04:20.219Z,200
2018-05-12T10:04:46.276Z,205
2018-05-12T10:05:11.958Z,200
2018-05-12T10:05:37.644Z,205
2018-05-12T10:06:03.378Z,200
2018-05-12T10:06:28.996Z,220
2018-05-12T10:06:54.577Z,225
2018-05-12T10:07:20.106Z,225
2018-05-12T10:07:46.183Z,225
2018-05-12T10:08:11.826Z,225
2018-05-12T10:08:37.505Z,225
2018-05-12T10:09:02.943Z,225
2018-05-12T10:09:28.572Z,230
2018-05-12T10:09:54.063Z,230
2018-05-12T10:10:19.644Z,230
2018-05-12T10:10:45.112Z,230
2018-05-12T10:11:10.683Z,235
2018-05-12T10:11:36.153Z,235
2018-05-12T10:12:01.700Z,240
2018-05-12T10:12:27.256Z,240
2018-05-12T10:12:52.828Z,240
2018-05-12T10:13:18.307Z,245
2018-05-12T10:13:43.869Z,250
2018-05-12T10:14:09.390Z,255
2018-05-12T10:14:35.001Z,255
2018-05-12T10:15:00.683Z,255
2018-05-12T10:15:26.229Z,260
2018-05-12T10:15:51.699Z,270
2018-05-12T10:16:17.415Z,280
2018-05-12T10:16:42.996Z,285
2018-05-12T10:17:08.472Z,290
2018-05-12T10:17:33.984Z,290
2018-05-12T10:17:59.431Z,290
2018-05-12T10:18:24.884Z,290
2018-05-12T10:18:50.361Z,290
2018-05-12T10:19:15.908Z,290
2018-05-12T10:19:41.385Z,280
2018-05-12T10:20:07.012Z,280
2018-05-12T10:20:32.468Z,270
2018-05-12T10:20:57.908Z,265
2018-05-12T10:21:23.399Z,260
2018-05-12T10:21:48.931Z,250
2018-05-12T10:22:14.405Z,245
2018-05-12T10:22:39.832Z,245
2018-05-12T10:23:05.408Z,245
2018-05-12T10:23:30.773Z,240
2018-05-12T10:23:56.277Z,245
2018-05-12T10:24:21.774Z,245
2018-05-12T10:24:47.296Z,250
2018-05-12T10:25:12.693Z,250
2018-05-12T10:25:38.175Z,260
2018-05-12T10:26:03.695Z,260
2018-05-12T10:26:29.149Z,265
2018-05-12T10:26:54.696Z,275
2018-05-12T10:27:20.267Z,285
2018-05-12T10:27:45.668Z,280
2018-05-12T10:28:11.195Z,290
2018-05-12T10:28:36.688Z,295
2018-05-12T10:29:02.251Z,300
2018-05-12T10:29:27.730Z,305
2018-05-12T10:29:53.288Z,310
2018-05-12T10:30:18.797Z,310
2018-05-12T10:30:44.338Z,310
2018-05-12T10:31:09.792Z,310
2018-05-12T10:31:35.282Z,310
2018-05-12T10:32:00.892Z,305
2018-05-12T10:32:26.340Z,295
2018-05-12T10:32:51.736Z,290
2018-05-12T10:33:17.232Z,280
2018-05-12T10:33:42.764Z,280
2018-05-12T10:34:08.257Z,275
2018-05-12T10:34:33.668Z,275
2018-05-12T10:34:59.174Z,265
2018-05-12T10:35:24.693Z,270
2018-05-12T10:35:50.253Z,270
2018-05-12T10:36:15.745Z,265
2018-05-12T10:36:41.279Z,260
2018-05-12T10:37:06.770Z,250
2018-05-12T10:37:32.195Z,245
2018-05-12T10:37:57.650Z,240
2018-05-12T10:38:23.290Z,240
2018-05-12T10:38:48.750Z,235
2018-05-12T10:39:14.182Z,225
2018-05-12T10:39:39.676Z,225
2018-05-12T10:40:05.108Z,220
2018-05-12T10:40:30.689Z,220
2018-05-12T10:40:56.113Z,215
2018-05-12T10:41:21.656Z,215
2018-05-12T10:41:47.133Z,210
2018-05-12T10:42:12.666Z,210
2018-05-12T10:42:38.170Z,210
2018-05-12T10:43:03.601Z,210
2018-05-12T10:43:29.075Z,210
2018-05-12T10:43:54.541Z,210
2018-05-12T10:44:19.968Z,210
2018-05-12T10:44:45.543Z,210
2018-05-12T10:45:11.014Z,210
2018-05-12T10:45:36.588Z,210
2018-05-12T10:46:02.266Z,215
2018-05-12T10:46:27.888Z,215
2018-05-12T10:46:53.395Z,215
2018-05-12T10:47:18.929Z,220
2018-05-12T10:47:44.363Z,225
2018-05-12T10:48:09.903Z,235
2018-05-12T10:48:35.346Z,235
2018-05-12T10:49:00.874Z,240
2018-05-12T10:49:26.477Z,240
2018-05-12T10:49:54.801Z,240
2018-05-12T10:50:27.304Z,240
2018-05-12T10:50:49.838Z,245
2018-05-12T10:51:15.584Z,245
2018-05-12T10:52:01.201Z,255
2018-05-12T10:52:26.948Z,260
2018-05-12T10:52:52.491Z,265
2018-05-12T10:53:18.111Z,265
2018-05-12T10:53:43.573Z,265
2018-05-12T10:54:08.994Z,265
2018-05-12T10:54:34.568Z,265
2018-05-12T10:55:00.096Z,270
2018-05-12T10:55:25.653Z,270
2018-05-12T10:55:51.175Z,270
2018-05-12T10:56:16.684Z,280
2018-05-12T10:56:42.082Z,275
2018-05-12T10:57:07.784Z,280
2018-05-12T10:57:33.711Z,280
2018-05-12T10:57:58.850Z,290
2018-05-12T10:58:24.266Z,285
2018-05-12T10:58:49.754Z,280
2018-05-12T10:59:15.308Z,280
2018-05-12T10:59:40.816Z,280
2018-05-12T11:00:06.382Z,280
2018-05-12T11:00:31.948Z,280
2018-05-12T11:00:57.535Z,285
2018-05-12T11:01:23.782Z,285
2018-05-12T11:01:49.434Z,285
2018-05-12T11:02:14.880Z,285
2018-05-12T11:02:40.366Z,290
2018-05-12T11:03:06.396Z,295
2018-05-12T11:03:31.815Z,295
2018-05-12T11:03:58.129Z,295
2018-05-12T11:04:23.618Z,300
2018-05-12T11:04:49.045Z,300
2018-05-12T11:05:15.089Z,300
2018-05-12T11:05:40.940Z,295
2018-05-12T11:06:06.439Z,290
2018-05-12T11:06:32.035Z,295
2018-05-12T11:06:57.538Z,295
2018-05-12T11:07:23.092Z,295
2018-05-12T11:07:48.565Z,295
2018-05-12T11:08:14.076Z,290
2018-05-12T11:08:39.682Z,290
2018-05-12T11:09:05.150Z,285
2018-05-12T11:09:30.738Z,280